| time (UTC) | temp C | wind direction | speed KPH | gust KPH | rain 1hr cm | rain 24hr cm | rain mn cm | humidity % | barometer mb |
| 20260906210903 | 25 | 121 | 4.8 | 11.3 | 0.00 | 0.76 | 0.76 | 78 | 1012.1 |
| 20260906210004 | 25 | 125 | 4.8 | 12.9 | 0.00 | 0.76 | 0.76 | 76 | 1012.4 |
| 20260906205403 | 25 | 114 | 4.8 | 11.3 | 0.00 | 0.76 | 0.76 | 78 | 1012.6 |
| 20260906204503 | 25 | 94 | 4.8 | 12.9 | 0.00 | 0.76 | 0.76 | 76 | 1012.6 |
| 20260906203624 | 25 | 101 | 8.0 | 14.5 | 0.00 | 0.76 | 0.76 | 78 | 1012.8 |
| 20260906202703 | 24 | 101 | 8.0 | 20.9 | 0.00 | 0.76 | 0.76 | 80 | 1013.0 |
| 20260906201803 | 24 | 119 | 9.7 | 20.9 | 0.00 | 0.76 | 0.76 | 81 | 1013.2 |
| 20260906200903 | 24 | 145 | 14.5 | 22.5 | 0.00 | 0.76 | 0.76 | 82 | 1013.5 |
| 20260906200003 | 23 | 158 | 12.9 | 20.9 | 0.00 | 0.76 | 0.76 | 86 | 1013.4 |
| 20260906195403 | 22 | 161 | 11.3 | 22.5 | 0.00 | 0.76 | 0.76 | 86 | 1013.6 |
| 20260906194524 | 22 | 155 | 12.9 | 24.1 | 0.00 | 0.76 | 0.76 | 91 | 1014.1 |
| 20260906193603 | 21 | 157 | 12.9 | 33.8 | 0.00 | 0.76 | 0.76 | 90 | 1014.3 |
| 20260906192703 | 21 | 158 | 17.7 | 35.4 | 0.03 | 0.76 | 0.76 | 89 | 1014.6 |
| 20260906191803 | 22 | 146 | 12.9 | 35.4 | 0.05 | 0.76 | 0.76 | 91 | 1015.0 |
| 20260906190924 | 22 | 125 | 9.7 | 17.7 | 0.33 | 0.76 | 0.76 | 94 | 1014.2 |
| 20260906190003 | 22 | 106 | 11.3 | 19.3 | 0.61 | 0.76 | 0.76 | 95 | 1014.1 |
| 20260906185403 | 22 | 86 | 6.4 | 14.5 | 0.71 | 0.76 | 0.76 | 95 | 1013.4 |
| 20260906184503 | 22 | 63 | 8.0 | 17.7 | 0.76 | 0.76 | 0.76 | 94 | 1013.5 |
| 20260906183604 | 21 | 359 | 6.4 | 27.4 | 0.76 | 0.76 | 0.76 | 94 | 1013.5 |
| 20260906182704 | 21 | 26 | 6.4 | 27.4 | 0.74 | 0.74 | 0.74 | 93 | 1013.3 |
| 20260906181804 | 21 | 181 | 6.4 | 19.3 | 0.71 | 0.71 | 0.71 | 91 | 1013.9 |
| 20260906180904 | 22 | 175 | 4.8 | 20.9 | 0.43 | 0.43 | 0.43 | 90 | 1014.8 |
| 20260906180025 | 22 | 317 | 4.8 | 20.9 | 0.15 | 0.15 | 0.15 | 88 | 1014.3 |
| 20260906175404 | 23 | 330 | 11.3 | 25.7 | 0.05 | 0.05 | 0.05 | 86 | 1014.3 |
| 20260906174504 | 23 | 337 | 14.5 | 24.1 | 0.00 | 0.00 | 0.00 | 84 | 1014.0 |
| 20260906173604 | 23 | 343 | 19.3 | 30.6 | 0.00 | 0.00 | 0.00 | 83 | 1013.9 |
| 20260906172725 | 23 | 332 | 16.1 | 29.0 | 0.00 | 0.00 | 0.00 | 82 | 1014.2 |
| 20260906171804 | 23 | 332 | 16.1 | 33.8 | 0.00 | 0.00 | 0.00 | 81 | 1014.0 |
| 20260906170925 | 25 | 321 | 14.5 | 33.8 | 0.00 | 0.00 | 0.00 | 79 | 1014.0 |
| 20260906170025 | 26 | 343 | 8.0 | 20.9 | 0.00 | 0.00 | 0.00 | 76 | 1014.0 |
| 20260906165404 | 26 | 329 | 11.3 | 22.5 | 0.00 | 0.00 | 0.00 | 75 | 1013.9 |
| 20260906164525 | 28 | 340 | 6.4 | 12.9 | 0.00 | 0.00 | 0.00 | 74 | 1013.9 |
| 20260906163625 | 28 | 334 | 1.6 | 8.0 | 0.00 | 0.00 | 0.00 | 73 | 1013.5 |
| 20260906162704 | 28 | 333 | 3.2 | 8.0 | 0.00 | 0.00 | 0.00 | 73 | 1013.5 |
| 20260906161804 | 28 | 337 | 6.4 | 12.9 | 0.00 | 0.00 | 0.00 | 75 | 1013.2 |
| 20260906160904 | 28 | 341 | 4.8 | 9.7 | 0.00 | 0.00 | 0.00 | 74 | 1012.7 |
| 20260906160004 | 28 | 40 | 3.2 | 6.4 | 0.00 | 0.00 | 0.00 | 73 | 1012.6 |
| 20260906155404 | 28 | 16 | 3.2 | 8.0 | 0.00 | 0.00 | 0.00 | 75 | 1012.4 |
| 20260906154525 | 27 | 16 | 1.6 | 6.4 | 0.00 | 0.00 | 0.00 | 76 | 1012.5 |
| 20260906153604 | 26 | 33 | 1.6 | 8.0 | 0.00 | 0.00 | 0.00 | 79 | 1012.5 |
| 20260906152704 | 26 | 55 | 4.8 | 8.0 | 0.00 | 0.00 | 0.00 | 80 | 1012.5 |
| 20260906151803 | 25 | 53 | 4.8 | 11.3 | 0.00 | 0.00 | 0.00 | 82 | 1012.4 |
| 20260906150904 | 24 | 66 | 3.2 | 11.3 | 0.00 | 0.00 | 0.00 | 83 | 1012.4 |
| 20260906150004 | 23 | 18 | 1.6 | 6.4 | 0.00 | 0.00 | 0.00 | 86 | 1012.6 |
| 20260906145404 | 23 | 343 | 3.2 | 6.4 | 0.00 | 0.00 | 0.00 | 88 | 1012.6 |
| 20260906144524 | 22 | 331 | 3.2 | 8.0 | 0.00 | 0.00 | 0.00 | 89 | 1012.8 |
| 20260906143624 | 22 | 316 | 3.2 | 6.4 | 0.00 | 0.00 | 0.00 | 89 | 1012.7 |
| 20260906142703 | 21 | 296 | 1.6 | 4.8 | 0.00 | 0.00 | 0.00 | 90 | 1012.9 |
| 20260906141803 | 21 | 269 | 1.6 | 4.8 | 0.00 | 0.00 | 0.00 | 89 | 1013.0 |
| 20260906140903 | 21 | 276 | 3.2 | 9.7 | 0.00 | 0.00 | 0.00 | 89 | 1013.1 |
| 20260906140003 | 22 | 207 | 3.2 | 8.0 | 0.00 | 0.00 | 0.00 | 88 | 1013.3 |
| 20260906135424 | 22 | 193 | 3.2 | 8.0 | 0.00 | 0.00 | 0.00 | 89 | 1012.9 |
| 20260906134503 | 21 | 84 | 3.2 | 8.0 | 0.00 | 0.00 | 0.00 | 92 | 1013.0 |
| 20260906133604 | 20 | 16 | 3.2 | 8.0 | 0.00 | 0.00 | 0.00 | 93 | 1012.5 |
| 20260906132703 | 20 | 157 | 3.2 | 6.4 | 0.00 | 0.00 | 0.00 | 93 | 1012.8 |
| 20260906131803 | 20 | 90 | 6.4 | 14.5 | 0.00 | 0.00 | 0.00 | 93 | 1012.4 |
| 20260906130903 | 20 | 78 | 8.0 | 14.5 | 0.00 | 0.00 | 0.00 | 93 | 1012.2 |
| 20260906130003 | 20 | 70 | 4.8 | 11.3 | 0.00 | 0.00 | 0.00 | 93 | 1012.4 |
| 20260906125403 | 19 | 81 | 3.2 | 6.4 | 0.00 | 0.00 | 0.00 | 93 | 1012.6 |
| 20260906124503 | 20 | 126 | 4.8 | 8.0 | 0.00 | 0.00 | 0.00 | 92 | 1013.0 |
| 20260906123603 | 20 | 77 | 3.2 | 4.8 | 0.00 | 0.00 | 0.00 | 92 | 1012.8 |
| 20260906122724 | 20 | 241 | 1.6 | 4.8 | 0.00 | 0.00 | 0.00 | 92 | 1012.8 |
| 20260906121803 | 20 | 122 | 8.0 | 16.1 | 0.00 | 0.00 | 0.00 | 92 | 1012.9 |
| 20260906120903 | 20 | 114 | 9.7 | 14.5 | 0.00 | 0.00 | 0.00 | 92 | 1012.7 |
| 20260906120003 | 20 | 115 | 6.4 | 12.9 | 0.00 | 0.00 | 0.00 | 92 | 1012.9 |
| 20260906115403 | 20 | 109 | 8.0 | 17.7 | 0.00 | 0.00 | 0.00 | 92 | 1012.8 |
| 20260906114503 | 20 | 110 | 9.7 | 17.7 | 0.00 | 0.00 | 0.00 | 92 | 1012.6 |
| 20260906113603 | 19 | 105 | 9.7 | 16.1 | 0.00 | 0.00 | 0.00 | 93 | 1012.5 |
| 20260906112703 | 19 | 111 | 11.3 | 16.1 | 0.00 | 0.00 | 0.00 | 93 | 1012.4 |
| 20260906111803 | 19 | 114 | 9.7 | 14.5 | 0.00 | 0.00 | 0.00 | 93 | 1012.6 |
| 20260906110903 | 19 | 119 | 8.0 | 12.9 | 0.00 | 0.00 | 0.00 | 93 | 1012.6 |
| 20260906110003 | 19 | 125 | 8.0 | 12.9 | 0.00 | 0.00 | 0.00 | 92 | 1012.6 |
| 20260906105403 | 19 | 125 | 8.0 | 12.9 | 0.00 | 0.00 | 0.00 | 92 | 1012.6 |
| 20260906104524 | 19 | 120 | 9.7 | 14.5 | 0.00 | 0.00 | 0.00 | 92 | 1012.6 |
| 20260906103603 | 19 | 120 | 11.3 | 17.7 | 0.00 | 0.00 | 0.00 | 92 | 1012.7 |
| 20260906102703 | 19 | 107 | 12.9 | 19.3 | 0.00 | 0.00 | 0.00 | 92 | 1012.6 |
| 20260906101803 | 19 | 109 | 11.3 | 17.7 | 0.00 | 0.00 | 0.00 | 93 | 1012.6 |
| 20260906100903 | 19 | 111 | 11.3 | 16.1 | 0.00 | 0.00 | 0.00 | 93 | 1012.7 |
| 20260906100003 | 19 | 117 | 11.3 | 17.7 | 0.00 | 0.00 | 0.00 | 92 | 1012.7 |
| 20260906095403 | 19 | 117 | 11.3 | 17.7 | 0.00 | 0.00 | 0.00 | 93 | 1012.8 |
| 20260906094503 | 19 | 111 | 11.3 | 17.7 | 0.00 | 0.00 | 0.00 | 92 | 1012.7 |
| 20260906093603 | 19 | 118 | 11.3 | 17.7 | 0.00 | 0.00 | 0.00 | 92 | 1012.8 |
| 20260906092706 | 20 | 118 | 9.7 | 16.1 | 0.00 | 0.00 | 0.00 | 92 | 1012.8 |
| 20260906091804 | 20 | 112 | 11.3 | 17.7 | 0.00 | 0.00 | 0.00 | 92 | 1012.6 |
| 20260906090904 | 20 | 110 | 11.3 | 17.7 | 0.00 | 0.00 | 0.00 | 92 | 1012.6 |
| 20260906090004 | 19 | 114 | 8.0 | 17.7 | 0.00 | 0.00 | 0.00 | 92 | 1012.8 |
| 20260906085404 | 19 | 113 | 9.7 | 16.1 | 0.00 | 0.00 | 0.00 | 92 | 1012.8 |
| 20260906084504 | 19 | 105 | 11.3 | 16.1 | 0.00 | 0.00 | 0.00 | 92 | 1012.8 |
| 20260906083604 | 19 | 96 | 11.3 | 17.7 | 0.00 | 0.00 | 0.00 | 92 | 1012.7 |
| 20260906082725 | 19 | 93 | 8.0 | 17.7 | 0.00 | 0.00 | 0.00 | 92 | 1012.7 |
| 20260906081825 | 19 | 88 | 9.7 | 20.9 | 0.00 | 0.00 | 0.00 | 92 | 1012.7 |
| 20260906080904 | 19 | 82 | 11.3 | 20.9 | 0.00 | 0.00 | 0.00 | 92 | 1012.6 |
| 20260906080004 | 19 | 85 | 11.3 | 22.5 | 0.00 | 0.00 | 0.00 | 92 | 1012.6 |
| 20260906075404 | 19 | 84 | 11.3 | 19.3 | 0.00 | 0.00 | 0.00 | 92 | 1012.5 |
| 20260906074525 | 19 | 84 | 9.7 | 20.9 | 0.00 | 0.00 | 0.00 | 91 | 1012.6 |
| 20260906073604 | 20 | 85 | 11.3 | 20.9 | 0.00 | 0.00 | 0.00 | 91 | 1012.6 |
| 20260906072704 | 20 | 87 | 9.7 | 19.3 | 0.00 | 0.00 | 0.00 | 91 | 1012.7 |
| 20260906071804 | 20 | 84 | 11.3 | 22.5 | 0.00 | 0.00 | 0.00 | 91 | 1012.6 |
| 20260906070904 | 20 | 90 | 11.3 | 20.9 | 0.00 | 0.00 | 0.00 | 90 | 1012.5 |
| 20260906070004 | 20 | 91 | 11.3 | 22.5 | 0.00 | 0.00 | 0.00 | 90 | 1012.7 |
| 20260906065404 | 20 | 95 | 9.7 | 22.5 | 0.00 | 0.00 | 0.00 | 90 | 1012.8 |
| 20260906064504 | 20 | 100 | 12.9 | 22.5 | 0.00 | 0.00 | 0.00 | 90 | 1012.7 |
| 20260906063604 | 20 | 107 | 12.9 | 20.9 | 0.00 | 0.00 | 0.00 | 90 | 1012.9 |
| 20260906062704 | 20 | 99 | 12.9 | 22.5 | 0.00 | 0.00 | 0.00 | 90 | 1012.8 |
| 20260906061804 | 20 | 96 | 11.3 | 20.9 | 0.00 | 0.00 | 0.00 | 90 | 1012.6 |
| 20260906060925 | 20 | 100 | 11.3 | 19.3 | 0.00 | 0.00 | 0.00 | 89 | 1012.6 |
| 20260906060025 | 20 | 90 | 9.7 | 19.3 | 0.00 | 0.00 | 0.00 | 89 | 1012.8 |
| 20260906055404 | 21 | 90 | 9.7 | 17.7 | 0.00 | 0.00 | 0.00 | 88 | 1012.9 |
| 20260906054504 | 21 | 97 | 9.7 | 20.9 | 0.00 | 0.00 | 0.00 | 88 | 1013.0 |
| 20260906053604 | 21 | 93 | 9.7 | 20.9 | 0.00 | 0.00 | 0.00 | 87 | 1013.0 |
| 20260906052704 | 21 | 91 | 11.3 | 20.9 | 0.00 | 0.00 | 0.00 | 87 | 1012.9 |
| 20260906051804 | 21 | 91 | 11.3 | 20.9 | 0.00 | 0.00 | 0.00 | 87 | 1012.8 |
| 20260906050904 | 21 | 89 | 11.3 | 19.3 | 0.00 | 0.00 | 0.00 | 87 | 1012.7 |
| 20260906050004 | 21 | 90 | 11.3 | 22.5 | 0.00 | 0.00 | 0.00 | 86 | 1012.8 |
| 20260906045405 | 21 | 89 | 11.3 | 19.3 | 0.00 | 0.00 | 0.00 | 86 | 1012.9 |
| 20260906044504 | 21 | 95 | 12.9 | 25.7 | 0.00 | 0.00 | 0.00 | 85 | 1012.8 |
| 20260906043603 | 21 | 89 | 14.5 | 25.7 | 0.00 | 0.00 | 0.00 | 85 | 1012.7 |
| 20260906042703 | 21 | 84 | 12.9 | 20.9 | 0.00 | 0.00 | 0.00 | 85 | 1012.6 |
| 20260906041804 | 22 | 86 | 11.3 | 20.9 | 0.00 | 0.00 | 0.00 | 84 | 1012.7 |
| 20260906040903 | 22 | 96 | 11.3 | 20.9 | 0.00 | 0.00 | 0.00 | 84 | 1012.9 |
| 20260906040004 | 22 | 95 | 11.3 | 20.9 | 0.00 | 0.00 | 0.00 | 84 | 1012.9 |
| 20260906035403 | 22 | 96 | 11.3 | 24.1 | 0.00 | 0.00 | 0.00 | 83 | 1012.7 |
| 20260906034503 | 22 | 100 | 11.3 | 22.5 | 0.00 | 0.00 | 0.00 | 82 | 1012.7 |
| 20260906033604 | 22 | 88 | 14.5 | 25.7 | 0.00 | 0.00 | 0.00 | 82 | 1012.6 |
| 20260906032703 | 22 | 76 | 12.9 | 29.0 | 0.00 | 0.00 | 0.00 | 82 | 1012.3 |
| 20260906031803 | 22 | 77 | 12.9 | 24.1 | 0.00 | 0.00 | 0.00 | 82 | 1012.3 |
| 20260906030903 | 22 | 67 | 12.9 | 24.1 | 0.00 | 0.00 | 0.00 | 82 | 1012.2 |
| 20260906030004 | 23 | 73 | 11.3 | 20.9 | 0.00 | 0.00 | 0.00 | 81 | 1012.4 |
| 20260906025403 | 22 | 75 | 9.7 | 20.9 | 0.00 | 0.00 | 0.00 | 82 | 1012.4 |
| 20260906024503 | 22 | 79 | 11.3 | 20.9 | 0.00 | 0.00 | 0.00 | 82 | 1012.3 |
| 20260906023603 | 23 | 83 | 11.3 | 20.9 | 0.00 | 0.00 | 0.00 | 82 | 1012.2 |
| 20260906022703 | 23 | 86 | 11.3 | 20.9 | 0.00 | 0.00 | 0.00 | 80 | 1012.0 |
| 20260906021803 | 23 | 88 | 8.0 | 19.3 | 0.00 | 0.00 | 0.00 | 79 | 1011.9 |
| 20260906020904 | 23 | 98 | 8.0 | 16.1 | 0.00 | 0.00 | 0.00 | 78 | 1011.8 |
| 20260906020003 | 24 | 103 | 11.3 | 16.1 | 0.00 | 0.00 | 0.00 | 76 | 1011.6 |
| 20260906015403 | 24 | 105 | 11.3 | 17.7 | 0.00 | 0.00 | 0.00 | 75 | 1011.6 |
| 20260906014524 | 24 | 109 | 11.3 | 17.7 | 0.00 | 0.00 | 0.00 | 74 | 1011.5 |
| 20260906013603 | 24 | 110 | 12.9 | 19.3 | 0.00 | 0.00 | 0.00 | 73 | 1011.4 |
| 20260906012724 | 25 | 107 | 11.3 | 19.3 | 0.00 | 0.00 | 0.00 | 71 | 1011.4 |
| 20260906011803 | 25 | 99 | 9.7 | 16.1 | 0.00 | 0.00 | 0.00 | 70 | 1011.3 |
| 20260906010905 | 26 | 92 | 8.0 | 16.1 | 0.00 | 0.00 | 0.00 | 68 | 1011.3 |
| 20260906010003 | 26 | 101 | 9.7 | 16.1 | 0.00 | 0.00 | 0.00 | 67 | 1011.2 |
| 20260906005403 | 27 | 104 | 9.7 | 16.1 | 0.00 | 0.00 | 0.00 | 66 | 1011.2 |
| 20260906004503 | 27 | 112 | 11.3 | 19.3 | 0.00 | 0.00 | 0.00 | 64 | 1011.2 |
| 20260906003603 | 27 | 115 | 11.3 | 20.9 | 0.00 | 0.00 | 0.00 | 65 | 1011.3 |
| 20260906002703 | 28 | 118 | 12.9 | 22.5 | 0.00 | 0.00 | 0.00 | 67 | 1011.5 |
| 20260906001804 | 28 | 117 | 16.1 | 30.6 | 0.00 | 0.00 | 0.00 | 67 | 1011.6 |
| 20260906000904 | 28 | 120 | 19.3 | 30.6 | 0.00 | 0.00 | 0.00 | 67 | 1011.7 |
| 20260906000025 | 28 | 111 | 19.3 | 33.8 | 0.00 | 0.00 | 0.00 | 69 | 1011.8 |
| 20260905235425 | 27 | 110 | 19.3 | 33.8 | 0.00 | 0.00 | 0.00 | 69 | 1011.8 |
| 20260905234504 | 28 | 111 | 22.5 | 37.0 | 0.00 | 0.00 | 0.00 | 68 | 1011.9 |
| 20260905233604 | 28 | 114 | 22.5 | 40.2 | 0.00 | 0.00 | 0.00 | 67 | 1011.9 |
| 20260905232704 | 29 | 108 | 20.9 | 40.2 | 0.00 | 0.00 | 0.00 | 64 | 1011.8 |
| 20260905231804 | 31 | 107 | 19.3 | 33.8 | 0.00 | 0.00 | 0.00 | 60 | 1011.6 |
| 20260905230905 | 32 | 113 | 19.3 | 33.8 | 0.00 | 0.00 | 0.00 | 50 | 1011.2 |
| 20260905230004 | 32 | 114 | 19.3 | 33.8 | 0.00 | 0.00 | 0.00 | 50 | 1011.1 |
| 20260905225404 | 32 | 117 | 17.7 | 33.8 | 0.00 | 0.00 | 0.00 | 50 | 1011.0 |
| 20260905224505 | 32 | 111 | 17.7 | 29.0 | 0.00 | 0.00 | 0.00 | 51 | 1011.0 |
| 20260905223625 | 32 | 105 | 16.1 | 29.0 | 0.00 | 0.00 | 0.00 | 50 | 1010.5 |
| 20260905222704 | 33 | 110 | 14.5 | 25.7 | 0.00 | 0.00 | 0.00 | 50 | 1010.1 |
| 20260905221804 | 33 | 118 | 16.1 | 30.6 | 0.00 | 0.00 | 0.00 | 48 | 1009.9 |
| 20260905220925 | 33 | 124 | 11.3 | 20.9 | 0.00 | 0.00 | 0.00 | 48 | 1010.0 |
| 20260905220004 | 33 | 130 | 12.9 | 22.5 | 0.00 | 0.00 | 0.00 | 47 | 1010.2 |
| 20260905215404 | 33 | 124 | 12.9 | 22.5 | 0.00 | 0.00 | 0.00 | 46 | 1010.4 |
| 20260905214525 | 33 | 129 | 12.9 | 20.9 | 0.00 | 0.00 | 0.00 | 48 | 1010.6 |
| 20260905213604 | 33 | 147 | 11.3 | 20.9 | 0.00 | 0.00 | 0.00 | 45 | 1010.7 |
| 20260905212704 | 33 | 136 | 12.9 | 27.4 | 0.00 | 0.00 | 0.00 | 43 | 1010.6 |
| 20260905211804 | 33 | 141 | 12.9 | 24.1 | 0.00 | 0.00 | 0.00 | 45 | 1010.7 |